sensor_id;sensor_type;location;lat;lon;timestamp;pressure;altitude;pressure_sealevel;temperature;humidity
42771;BME280;28426;42.872;25.314;2023-08-24T00:00:54;96968.81;;;25.84;50.33
42771;BME280;28426;42.872;25.314;2023-08-24T00:03:28;96970.41;;;25.90;49.73
42771;BME280;28426;42.872;25.314;2023-08-24T00:06:00;96966.50;;;25.96;49.72
42771;BME280;28426;42.872;25.314;2023-08-24T00:08:32;96963.72;;;26.02;49.60
42771;BME280;28426;42.872;25.314;2023-08-24T00:11:05;96959.06;;;26.02;50.46
42771;BME280;28426;42.872;25.314;2023-08-24T00:13:36;96955.50;;;26.02;50.08
42771;BME280;28426;42.872;25.314;2023-08-24T00:16:07;96958.81;;;25.98;50.47
42771;BME280;28426;42.872;25.314;2023-08-24T00:18:38;96951.16;;;26.01;50.81
42771;BME280;28426;42.872;25.314;2023-08-24T00:21:10;96962.91;;;26.01;50.55
42771;BME280;28426;42.872;25.314;2023-08-24T00:23:41;96955.50;;;26.02;50.89
42771;BME280;28426;42.872;25.314;2023-08-24T00:26:14;96952.22;;;26.05;50.29
42771;BME280;28426;42.872;25.314;2023-08-24T00:28:46;96951.38;;;26.04;50.23
42771;BME280;28426;42.872;25.314;2023-08-24T00:31:17;96953.88;;;26.01;50.62
42771;BME280;28426;42.872;25.314;2023-08-24T00:33:48;96951.72;;;25.97;50.40
42771;BME280;28426;42.872;25.314;2023-08-24T00:36:20;96946.31;;;25.92;50.75
42771;BME280;28426;42.872;25.314;2023-08-24T00:38:51;96951.28;;;25.90;50.18
42771;BME280;28426;42.872;25.314;2023-08-24T00:41:25;96961.16;;;25.86;50.83
42771;BME280;28426;42.872;25.314;2023-08-24T00:43:56;96957.88;;;25.84;51.55
42771;BME280;28426;42.872;25.314;2023-08-24T00:46:27;96945.84;;;25.85;51.55
42771;BME280;28426;42.872;25.314;2023-08-24T00:48:58;96953.25;;;25.84;51.83
42771;BME280;28426;42.872;25.314;2023-08-24T00:51:29;96955.44;;;25.82;51.14
42771;BME280;28426;42.872;25.314;2023-08-24T00:54:00;96947.81;;;25.79;51.72
42771;BME280;28426;42.872;25.314;2023-08-24T00:56:33;96952.75;;;25.77;51.69
42771;BME280;28426;42.872;25.314;2023-08-24T00:59:04;96954.13;;;25.75;52.09
42771;BME280;28426;42.872;25.314;2023-08-24T01:01:35;96954.72;;;25.71;52.72
42771;BME280;28426;42.872;25.314;2023-08-24T01:04:06;96948.44;;;25.71;53.01
42771;BME280;28426;42.872;25.314;2023-08-24T01:06:38;96939.72;;;25.69;52.60
42771;BME280;28426;42.872;25.314;2023-08-24T01:09:10;96949.28;;;25.66;52.71
42771;BME280;28426;42.872;25.314;2023-08-24T01:11:52;96949.34;;;25.61;53.16
42771;BME280;28426;42.872;25.314;2023-08-24T01:14:33;96945.00;;;25.55;53.34
42771;BME280;28426;42.872;25.314;2023-08-24T01:17:09;96955.44;;;25.47;53.85
42771;BME280;28426;42.872;25.314;2023-08-24T01:19:43;96944.84;;;25.41;54.72
42771;BME280;28426;42.872;25.314;2023-08-24T01:22:31;96946.22;;;25.38;54.72
42771;BME280;28426;42.872;25.314;2023-08-24T01:25:07;96956.41;;;25.27;53.92
42771;BME280;28426;42.872;25.314;2023-08-24T01:27:45;96962.84;;;25.07;52.84
42771;BME280;28426;42.872;25.314;2023-08-24T01:30:18;96964.63;;;24.87;52.90
42771;BME280;28426;42.872;25.314;2023-08-24T01:32:50;96969.59;;;24.69;53.27
42771;BME280;28426;42.872;25.314;2023-08-24T01:35:21;96969.94;;;24.52;54.23
42771;BME280;28426;42.872;25.314;2023-08-24T01:37:52;96969.47;;;24.35;54.28
42771;BME280;28426;42.872;25.314;2023-08-24T01:40:27;96960.53;;;24.19;54.08
42771;BME280;28426;42.872;25.314;2023-08-24T01:43:06;96974.72;;;24.05;54.52
42771;BME280;28426;42.872;25.314;2023-08-24T01:45:39;96971.72;;;23.91;54.96
42771;BME280;28426;42.872;25.314;2023-08-24T01:48:12;96976.38;;;23.80;55.56
42771;BME280;28426;42.872;25.314;2023-08-24T01:50:44;96967.13;;;23.71;55.82
42771;BME280;28426;42.872;25.314;2023-08-24T01:53:15;96969.03;;;23.60;56.26
42771;BME280;28426;42.872;25.314;2023-08-24T01:55:46;96963.34;;;23.51;56.25
42771;BME280;28426;42.872;25.314;2023-08-24T01:58:20;96975.56;;;23.43;56.34
42771;BME280;28426;42.872;25.314;2023-08-24T02:00:51;96969.84;;;23.34;56.77
42771;BME280;28426;42.872;25.314;2023-08-24T02:03:22;96965.19;;;23.24;57.41
42771;BME280;28426;42.872;25.314;2023-08-24T02:05:53;96962.19;;;23.16;58.19
42771;BME280;28426;42.872;25.314;2023-08-24T02:08:24;96960.28;;;23.06;58.21
42771;BME280;28426;42.872;25.314;2023-08-24T02:10:55;96958.34;;;22.96;58.27
42771;BME280;28426;42.872;25.314;2023-08-24T02:13:28;96959.44;;;22.90;58.46
42771;BME280;28426;42.872;25.314;2023-08-24T02:16:03;96960.50;;;22.83;58.27
42771;BME280;28426;42.872;25.314;2023-08-24T02:18:36;96959.94;;;22.81;58.40
42771;BME280;28426;42.872;25.314;2023-08-24T02:21:07;96952.31;;;22.78;59.65
42771;BME280;28426;42.872;25.314;2023-08-24T02:23:40;96950.41;;;22.73;60.80
42771;BME280;28426;42.872;25.314;2023-08-24T02:26:11;96950.13;;;22.70;61.03
42771;BME280;28426;42.872;25.314;2023-08-24T02:28:44;96949.56;;;22.63;61.76
42771;BME280;28426;42.872;25.314;2023-08-24T02:31:15;96944.66;;;22.59;61.53
42771;BME280;28426;42.872;25.314;2023-08-24T02:33:46;96936.47;;;22.54;62.16
42771;BME280;28426;42.872;25.314;2023-08-24T02:36:17;96940.00;;;22.50;62.23
42771;BME280;28426;42.872;25.314;2023-08-24T02:38:48;96935.59;;;22.43;61.55
42771;BME280;28426;42.872;25.314;2023-08-24T02:41:19;96938.31;;;22.38;61.52
42771;BME280;28426;42.872;25.314;2023-08-24T02:43:52;96936.41;;;22.33;61.81
42771;BME280;28426;42.872;25.314;2023-08-24T02:46:23;96934.47;;;22.29;61.01
42771;BME280;28426;42.872;25.314;2023-08-24T02:48:54;96940.16;;;22.27;60.84
42771;BME280;28426;42.872;25.314;2023-08-24T02:51:25;96940.41;;;22.26;61.05
42771;BME280;28426;42.872;25.314;2023-08-24T02:53:56;96935.81;;;22.26;61.10
42771;BME280;28426;42.872;25.314;2023-08-24T02:56:27;96949.94;;;22.28;60.90
42771;BME280;28426;42.872;25.314;2023-08-24T02:59:00;96944.50;;;22.28;60.70
42771;BME280;28426;42.872;25.314;2023-08-24T03:01:31;96945.34;;;22.29;60.95
42771;BME280;28426;42.872;25.314;2023-08-24T03:04:02;96947.22;;;22.28;60.39
42771;BME280;28426;42.872;25.314;2023-08-24T03:06:33;96952.13;;;22.26;60.30
42771;BME280;28426;42.872;25.314;2023-08-24T03:09:04;96954.25;;;22.24;60.52
42771;BME280;28426;42.872;25.314;2023-08-24T03:11:35;96951.84;;;22.23;61.24
42771;BME280;28426;42.872;25.314;2023-08-24T03:14:09;96946.94;;;22.19;60.57
42771;BME280;28426;42.872;25.314;2023-08-24T03:16:40;96945.56;;;22.17;61.30
42771;BME280;28426;42.872;25.314;2023-08-24T03:19:11;96943.34;;;22.14;60.91
42771;BME280;28426;42.872;25.314;2023-08-24T03:21:44;96946.34;;;22.12;61.63
42771;BME280;28426;42.872;25.314;2023-08-24T03:24:15;96936.00;;;22.09;61.77
42771;BME280;28426;42.872;25.314;2023-08-24T03:26:46;96940.88;;;22.07;61.88
42771;BME280;28426;42.872;25.314;2023-08-24T03:29:21;96930.81;;;22.02;62.03
42771;BME280;28426;42.872;25.314;2023-08-24T03:31:53;96940.03;;;22.01;62.12
42771;BME280;28426;42.872;25.314;2023-08-24T03:34:23;96935.69;;;22.00;61.71
42771;BME280;28426;42.872;25.314;2023-08-24T03:36:55;96934.31;;;21.98;61.81
42771;BME280;28426;42.872;25.314;2023-08-24T03:39:26;96948.16;;;21.96;62.49
42771;BME280;28426;42.872;25.314;2023-08-24T03:41:56;96947.63;;;21.94;61.77
42771;BME280;28426;42.872;25.314;2023-08-24T03:44:30;96942.97;;;21.94;62.36
42771;BME280;28426;42.872;25.314;2023-08-24T03:47:01;96945.97;;;21.93;62.05
42771;BME280;28426;42.872;25.314;2023-08-24T03:49:32;96943.25;;;21.93;62.64
42771;BME280;28426;42.872;25.314;2023-08-24T03:52:03;96953.31;;;21.92;62.15
42771;BME280;28426;42.872;25.314;2023-08-24T03:54:34;96957.09;;;21.91;62.05
42771;BME280;28426;42.872;25.314;2023-08-24T03:57:05;96963.91;;;21.94;61.60
42771;BME280;28426;42.872;25.314;2023-08-24T03:59:38;96961.19;;;21.94;61.83
42771;BME280;28426;42.872;25.314;2023-08-24T04:02:10;96962.00;;;21.94;61.43
42771;BME280;28426;42.872;25.314;2023-08-24T04:04:41;96964.44;;;21.96;61.89
42771;BME280;28426;42.872;25.314;2023-08-24T04:07:12;96973.19;;;21.98;62.02
42771;BME280;28426;42.872;25.314;2023-08-24T04:09:43;96977.00;;;22.02;61.99
42771;BME280;28426;42.872;25.314;2023-08-24T04:12:14;96984.06;;;22.03;62.92
42771;BME280;28426;42.872;25.314;2023-08-24T04:14:47;96977.53;;;22.04;62.79
42771;BME280;28426;42.872;25.314;2023-08-24T04:17:20;96980.25;;;22.04;62.77
42771;BME280;28426;42.872;25.314;2023-08-24T04:19:51;96983.25;;;22.03;63.27
42771;BME280;28426;42.872;25.314;2023-08-24T04:22:22;96994.44;;;22.12;64.42
42771;BME280;28426;42.872;25.314;2023-08-24T04:24:52;97005.63;;;22.74;63.29
42771;BME280;28426;42.872;25.314;2023-08-24T04:27:23;97000.34;;;23.68;60.56
42771;BME280;28426;42.872;25.314;2023-08-24T04:29:57;97003.66;;;24.77;57.35
42771;BME280;28426;42.872;25.314;2023-08-24T04:32:33;97004.22;;;25.65;53.90
42771;BME280;28426;42.872;25.314;2023-08-24T04:35:04;97007.16;;;26.33;52.15
42771;BME280;28426;42.872;25.314;2023-08-24T04:37:35;97006.19;;;26.92;50.65
42771;BME280;28426;42.872;25.314;2023-08-24T04:40:07;97003.63;;;27.39;49.18
42771;BME280;28426;42.872;25.314;2023-08-24T04:42:35;97009.38;;;27.76;48.28
42771;BME280;28426;42.872;25.314;2023-08-24T04:45:09;96997.34;;;28.05;46.97
42771;BME280;28426;42.872;25.314;2023-08-24T04:47:40;96996.97;;;28.26;46.85
42771;BME280;28426;42.872;25.314;2023-08-24T04:50:11;96993.53;;;28.34;46.30
42771;BME280;28426;42.872;25.314;2023-08-24T04:52:42;96990.69;;;28.39;46.04
42771;BME280;28426;42.872;25.314;2023-08-24T04:55:13;96992.53;;;28.44;46.19
42771;BME280;28426;42.872;25.314;2023-08-24T04:57:45;96991.09;;;28.61;46.28
42771;BME280;28426;42.872;25.314;2023-08-24T05:00:19;96995.13;;;28.77;46.04
42771;BME280;28426;42.872;25.314;2023-08-24T05:02:50;96995.94;;;28.92;45.91
42771;BME280;28426;42.872;25.314;2023-08-24T05:05:21;96985.78;;;29.06;44.97
42771;BME280;28426;42.872;25.314;2023-08-24T05:07:53;96983.94;;;28.88;44.21
42771;BME280;28426;42.872;25.314;2023-08-24T05:10:25;96986.44;;;28.47;45.21
42771;BME280;28426;42.872;25.314;2023-08-24T05:12:56;96994.38;;;28.01;45.45
42771;BME280;28426;42.872;25.314;2023-08-24T05:15:31;97002.63;;;27.49;45.85
42771;BME280;28426;42.872;25.314;2023-08-24T05:18:02;97000.97;;;26.95;46.29
42771;BME280;28426;42.872;25.314;2023-08-24T05:20:33;97008.91;;;26.48;47.23
42771;BME280;28426;42.872;25.314;2023-08-24T05:23:04;97008.50;;;26.06;48.33
42771;BME280;28426;42.872;25.314;2023-08-24T05:25:35;97009.13;;;25.68;49.55
42771;BME280;28426;42.872;25.314;2023-08-24T05:28:06;97009.09;;;25.33;50.02
42771;BME280;28426;42.872;25.314;2023-08-24T05:30:39;97006.56;;;25.02;50.83
42771;BME280;28426;42.872;25.314;2023-08-24T05:33:10;97012.38;;;24.74;51.75
42771;BME280;28426;42.872;25.314;2023-08-24T05:35:41;97023.66;;;24.52;52.84
42771;BME280;28426;42.872;25.314;2023-08-24T05:38:12;97027.03;;;24.28;53.22
42771;BME280;28426;42.872;25.314;2023-08-24T05:40:47;97025.38;;;24.06;54.70
42771;BME280;28426;42.872;25.314;2023-08-24T05:43:18;97041.22;;;23.83;54.64
42771;BME280;28426;42.872;25.314;2023-08-24T05:45:52;97039.03;;;23.64;56.10
42771;BME280;28426;42.872;25.314;2023-08-24T05:48:22;97040.94;;;23.48;56.18
42771;BME280;28426;42.872;25.314;2023-08-24T05:50:51;97028.13;;;23.33;57.68
42771;BME280;28426;42.872;25.314;2023-08-24T05:53:21;97040.56;;;23.19;59.72
42771;BME280;28426;42.872;25.314;2023-08-24T05:55:57;97044.34;;;23.02;61.25
42771;BME280;28426;42.872;25.314;2023-08-24T05:58:28;97053.28;;;22.87;61.04
42771;BME280;28426;42.872;25.314;2023-08-24T06:01:01;97058.38;;;22.73;61.07
42771;BME280;28426;42.872;25.314;2023-08-24T06:03:32;97060.53;;;22.60;61.41
42771;BME280;28426;42.872;25.314;2023-08-24T06:06:03;97062.63;;;22.53;61.85
42771;BME280;28426;42.872;25.314;2023-08-24T06:08:36;97053.59;;;22.47;61.99
42771;BME280;28426;42.872;25.314;2023-08-24T06:11:07;97053.59;;;22.42;63.85
42771;BME280;28426;42.872;25.314;2023-08-24T06:13:38;97056.53;;;22.36;63.87
42771;BME280;28426;42.872;25.314;2023-08-24T06:16:11;97065.75;;;22.29;64.53
42771;BME280;28426;42.872;25.314;2023-08-24T06:18:42;97070.06;;;22.25;64.58
42771;BME280;28426;42.872;25.314;2023-08-24T06:21:13;97068.13;;;22.20;64.73
42771;BME280;28426;42.872;25.314;2023-08-24T06:23:43;97067.84;;;22.17;64.92
42771;BME280;28426;42.872;25.314;2023-08-24T06:26:15;97064.56;;;22.15;64.64
42771;BME280;28426;42.872;25.314;2023-08-24T06:28:45;97062.91;;;22.14;66.70
42771;BME280;28426;42.872;25.314;2023-08-24T06:31:19;97065.09;;;22.12;66.61
42771;BME280;28426;42.872;25.314;2023-08-24T06:33:50;97064.53;;;22.10;66.31
42771;BME280;28426;42.872;25.314;2023-08-24T06:36:20;97061.00;;;22.09;66.48
42771;BME280;28426;42.872;25.314;2023-08-24T06:38:51;97055.56;;;22.09;67.13
42771;BME280;28426;42.872;25.314;2023-08-24T06:41:22;97052.84;;;22.09;66.89
42771;BME280;28426;42.872;25.314;2023-08-24T06:43:53;97056.94;;;22.12;67.23
42771;BME280;28426;42.872;25.314;2023-08-24T06:46:26;97056.41;;;22.15;68.30
42771;BME280;28426;42.872;25.314;2023-08-24T06:48:57;97047.72;;;22.18;67.65
42771;BME280;28426;42.872;25.314;2023-08-24T06:51:28;97049.69;;;22.23;67.56
42771;BME280;28426;42.872;25.314;2023-08-24T06:53:59;97051.59;;;22.27;67.36
42771;BME280;28426;42.872;25.314;2023-08-24T06:56:30;97056.50;;;22.30;67.29
42771;BME280;28426;42.872;25.314;2023-08-24T06:59:01;97057.91;;;22.38;67.18
42771;BME280;28426;42.872;25.314;2023-08-24T07:01:35;97049.78;;;22.43;66.66
42771;BME280;28426;42.872;25.314;2023-08-24T07:04:07;97054.72;;;22.52;65.57
42771;BME280;28426;42.872;25.314;2023-08-24T07:06:38;97061.59;;;22.59;64.92
42771;BME280;28426;42.872;25.314;2023-08-24T07:09:10;97063.81;;;22.73;64.45
42771;BME280;28426;42.872;25.314;2023-08-24T07:11:41;97063.34;;;22.92;64.42
42771;BME280;28426;42.872;25.314;2023-08-24T07:14:11;97062.88;;;23.10;63.67
42771;BME280;28426;42.872;25.314;2023-08-24T07:16:45;97053.91;;;23.25;63.06
42771;BME280;28426;42.872;25.314;2023-08-24T07:19:15;97050.19;;;23.37;62.31
42771;BME280;28426;42.872;25.314;2023-08-24T07:21:46;97061.34;;;23.46;62.56
42771;BME280;28426;42.872;25.314;2023-08-24T07:24:17;97052.09;;;23.52;62.59
42771;BME280;28426;42.872;25.314;2023-08-24T07:27:11;97054.28;;;23.60;62.06
42771;BME280;28426;42.872;25.314;2023-08-24T07:29:42;97055.91;;;23.67;61.54
42771;BME280;28426;42.872;25.314;2023-08-24T07:32:15;97054.28;;;23.71;60.84
42771;BME280;28426;42.872;25.314;2023-08-24T07:34:47;97049.66;;;23.76;61.50
42771;BME280;28426;42.872;25.314;2023-08-24T07:37:18;97047.75;;;23.87;61.60
42771;BME280;28426;42.872;25.314;2023-08-24T07:39:49;97047.75;;;24.03;61.11
42771;BME280;28426;42.872;25.314;2023-08-24T07:42:20;97051.81;;;24.16;60.82
42771;BME280;28426;42.872;25.314;2023-08-24T07:44:51;97052.09;;;24.30;60.71
42771;BME280;28426;42.872;25.314;2023-08-24T07:47:25;97063.47;;;24.53;60.66
42771;BME280;28426;42.872;25.314;2023-08-24T07:49:56;97056.00;;;24.95;60.25
42771;BME280;28426;42.872;25.314;2023-08-24T07:52:26;97048.88;;;25.44;58.76
42771;BME280;28426;42.872;25.314;2023-08-24T07:54:57;97046.84;;;26.01;58.29
42771;BME280;28426;42.872;25.314;2023-08-24T07:57:31;97052.22;;;26.65;55.60
42771;BME280;28426;42.872;25.314;2023-08-24T08:00:03;97053.69;;;27.25;54.22
42771;BME280;28426;42.872;25.314;2023-08-24T08:02:43;97060.47;;;27.86;53.69
42771;BME280;28426;42.872;25.314;2023-08-24T08:05:13;97051.88;;;28.40;51.32
42771;BME280;28426;42.872;25.314;2023-08-24T08:07:44;97058.63;;;28.90;50.51
42771;BME280;28426;42.872;25.314;2023-08-24T08:10:15;97049.19;;;29.33;48.69
42771;BME280;28426;42.872;25.314;2023-08-24T08:12:48;97050.69;;;29.76;48.67
42771;BME280;28426;42.872;25.314;2023-08-24T08:15:19;97046.59;;;30.19;46.62
42771;BME280;28426;42.872;25.314;2023-08-24T08:17:52;97043.38;;;30.58;45.42
42771;BME280;28426;42.872;25.314;2023-08-24T08:20:24;97038.31;;;30.91;45.34
42771;BME280;28426;42.872;25.314;2023-08-24T08:22:55;97035.97;;;31.34;45.10
42771;BME280;28426;42.872;25.314;2023-08-24T08:25:26;97046.34;;;31.73;42.08
42771;BME280;28426;42.872;25.314;2023-08-24T08:27:59;97036.25;;;32.03;42.29
42771;BME280;28426;42.872;25.314;2023-08-24T08:30:30;97035.03;;;32.31;41.73
42771;BME280;28426;42.872;25.314;2023-08-24T08:33:03;97030.53;;;32.65;40.78
42771;BME280;28426;42.872;25.314;2023-08-24T08:35:36;97025.47;;;32.97;40.24
42771;BME280;28426;42.872;25.314;2023-08-24T08:38:08;97023.69;;;33.23;39.42
42771;BME280;28426;42.872;25.314;2023-08-24T08:40:39;97016.34;;;33.48;38.81
42771;BME280;28426;42.872;25.314;2023-08-24T08:43:11;97015.06;;;33.67;38.20
42771;BME280;28426;42.872;25.314;2023-08-24T08:45:42;97014.91;;;33.85;37.77
42771;BME280;28426;42.872;25.314;2023-08-24T08:48:16;97012.41;;;34.04;36.86
42771;BME280;28426;42.872;25.314;2023-08-24T08:50:48;97009.81;;;34.21;36.74
42771;BME280;28426;42.872;25.314;2023-08-24T08:53:22;97007.16;;;34.37;36.68
42771;BME280;28426;42.872;25.314;2023-08-24T08:55:55;97001.97;;;34.48;36.30
42771;BME280;28426;42.872;25.314;2023-08-24T08:58:31;97001.63;;;34.49;35.62
42771;BME280;28426;42.872;25.314;2023-08-24T09:01:03;97005.09;;;34.46;35.59
42771;BME280;28426;42.872;25.314;2023-08-24T09:03:39;97003.38;;;34.41;35.54
42771;BME280;28426;42.872;25.314;2023-08-24T09:06:11;96997.69;;;34.38;35.41
42771;BME280;28426;42.872;25.314;2023-08-24T09:08:42;96999.56;;;34.34;35.38
42771;BME280;28426;42.872;25.314;2023-08-24T09:11:12;96995.38;;;34.27;34.75
42771;BME280;28426;42.872;25.314;2023-08-24T09:13:45;96994.25;;;34.16;35.14
42771;BME280;28426;42.872;25.314;2023-08-24T09:16:16;96987.28;;;34.10;34.73
42771;BME280;28426;42.872;25.314;2023-08-24T09:18:50;96984.72;;;34.04;35.47
42771;BME280;28426;42.872;25.314;2023-08-24T09:21:23;96985.19;;;34.07;35.20
42771;BME280;28426;42.872;25.314;2023-08-24T09:23:55;96978.53;;;34.08;34.73
42771;BME280;28426;42.872;25.314;2023-08-24T09:26:29;96975.06;;;34.11;34.91
42771;BME280;28426;42.872;25.314;2023-08-24T09:29:10;96969.19;;;34.12;34.35
42771;BME280;28426;42.872;25.314;2023-08-24T09:31:42;96967.22;;;34.13;34.44
42771;BME280;28426;42.872;25.314;2023-08-24T09:34:18;96966.06;;;34.14;34.23
42771;BME280;28426;42.872;25.314;2023-08-24T09:36:49;96962.38;;;34.10;34.03
42771;BME280;28426;42.872;25.314;2023-08-24T09:39:21;96959.47;;;34.06;34.50
42771;BME280;28426;42.872;25.314;2023-08-24T09:41:51;96960.47;;;34.01;33.97
42771;BME280;28426;42.872;25.314;2023-08-24T09:44:22;96946.09;;;33.96;33.71
42771;BME280;28426;42.872;25.314;2023-08-24T09:46:54;96944.66;;;33.89;34.06
42771;BME280;28426;42.872;25.314;2023-08-24T09:49:28;96949.59;;;33.84;33.94
42771;BME280;28426;42.872;25.314;2023-08-24T09:51:59;96946.72;;;33.80;33.74
42771;BME280;28426;42.872;25.314;2023-08-24T09:54:31;96944.31;;;33.78;34.64
42771;BME280;28426;42.872;25.314;2023-08-24T09:57:06;96941.88;;;33.77;33.86
42771;BME280;28426;42.872;25.314;2023-08-24T09:59:39;96935.53;;;33.76;33.42
42771;BME280;28426;42.872;25.314;2023-08-24T10:02:14;96933.13;;;33.75;33.05
42771;BME280;28426;42.872;25.314;2023-08-24T10:04:52;96932.56;;;33.82;33.46
42771;BME280;28426;42.872;25.314;2023-08-24T10:07:26;96934.06;;;33.91;32.95
42771;BME280;28426;42.872;25.314;2023-08-24T10:10:02;96935.78;;;33.96;32.92
42771;BME280;28426;42.872;25.314;2023-08-24T10:12:47;96930.97;;;34.05;32.36
42771;BME280;28426;42.872;25.314;2023-08-24T10:15:21;96923.38;;;34.15;32.34
42771;BME280;28426;42.872;25.314;2023-08-24T10:17:53;96928.00;;;34.23;31.53
42771;BME280;28426;42.872;25.314;2023-08-24T10:20:28;96919.13;;;34.30;31.04
42771;BME280;28426;42.872;25.314;2023-08-24T10:22:59;96910.56;;;34.35;30.73
42771;BME280;28426;42.872;25.314;2023-08-24T10:25:32;96909.97;;;34.42;30.90
42771;BME280;28426;42.872;25.314;2023-08-24T10:28:04;96902.59;;;34.46;31.19
42771;BME280;28426;42.872;25.314;2023-08-24T10:30:38;96904.44;;;34.54;31.16
42771;BME280;28426;42.872;25.314;2023-08-24T10:33:12;96891.75;;;34.66;30.74
42771;BME280;28426;42.872;25.314;2023-08-24T10:35:48;96889.41;;;34.80;30.77
42771;BME280;28426;42.872;25.314;2023-08-24T10:38:23;96873.88;;;34.92;29.71
42771;BME280;28426;42.872;25.314;2023-08-24T10:41:02;96873.94;;;35.08;29.97
42771;BME280;28426;42.872;25.314;2023-08-24T10:43:34;96867.66;;;35.24;29.34
42771;BME280;28426;42.872;25.314;2023-08-24T10:46:04;96857.78;;;35.39;29.54
42771;BME280;28426;42.872;25.314;2023-08-24T10:48:59;96850.72;;;35.57;29.74
42771;BME280;28426;42.872;25.314;2023-08-24T10:51:43;96849.28;;;35.80;29.12
42771;BME280;28426;42.872;25.314;2023-08-24T10:54:14;96845.38;;;35.97;28.93
42771;BME280;28426;42.872;25.314;2023-08-24T10:56:53;96837.13;;;36.17;28.31
42771;BME280;28426;42.872;25.314;2023-08-24T10:59:34;96832.34;;;36.33;28.23
42771;BME280;28426;42.872;25.314;2023-08-24T11:02:19;96827.19;;;36.35;27.61
42771;BME280;28426;42.872;25.314;2023-08-24T11:05:14;96833.63;;;36.20;27.08
42771;BME280;28426;42.872;25.314;2023-08-24T11:07:52;96845.00;;;36.15;27.87
42771;BME280;28426;42.872;25.314;2023-08-24T11:10:24;96842.03;;;36.23;28.29
42771;BME280;28426;42.872;25.314;2023-08-24T11:13:13;96845.03;;;36.34;27.06
42771;BME280;28426;42.872;25.314;2023-08-24T11:15:45;96851.84;;;36.37;27.40
42771;BME280;28426;42.872;25.314;2023-08-24T11:18:23;96904.66;;;36.21;27.40
42771;BME280;28426;42.872;25.314;2023-08-24T11:20:56;96895.41;;;35.84;26.88
42771;BME280;28426;42.872;25.314;2023-08-24T11:23:33;96901.69;;;35.37;27.90
42771;BME280;28426;42.872;25.314;2023-08-24T11:26:05;96908.13;;;34.83;28.08
42771;BME280;28426;42.872;25.314;2023-08-24T11:28:37;96906.44;;;34.16;30.54
42771;BME280;28426;42.872;25.314;2023-08-24T11:31:09;96911.50;;;33.56;32.04
42771;BME280;28426;42.872;25.314;2023-08-24T11:33:41;96890.75;;;32.94;32.95
42771;BME280;28426;42.872;25.314;2023-08-24T11:36:12;96889.81;;;32.39;32.99
42771;BME280;28426;42.872;25.314;2023-08-24T11:38:45;96895.22;;;31.87;33.36
42771;BME280;28426;42.872;25.314;2023-08-24T11:41:19;96882.22;;;31.40;34.93
42771;BME280;28426;42.872;25.314;2023-08-24T11:43:58;96886.66;;;30.97;37.44
42771;BME280;28426;42.872;25.314;2023-08-24T11:46:44;96869.72;;;30.54;41.39
42771;BME280;28426;42.872;25.314;2023-08-24T11:49:16;96879.88;;;30.18;41.05
42771;BME280;28426;42.872;25.314;2023-08-24T11:51:47;96872.63;;;29.82;42.48
42771;BME280;28426;42.872;25.314;2023-08-24T11:54:22;96870.78;;;29.45;43.30
42771;BME280;28426;42.872;25.314;2023-08-24T11:56:53;96872.50;;;29.09;44.62
42771;BME280;28426;42.872;25.314;2023-08-24T11:59:24;96866.22;;;28.72;45.54
42771;BME280;28426;42.872;25.314;2023-08-24T12:01:56;96875.66;;;28.43;46.72
42771;BME280;28426;42.872;25.314;2023-08-24T12:04:26;96883.56;;;28.16;47.33
42771;BME280;28426;42.872;25.314;2023-08-24T12:06:57;96875.06;;;27.90;48.41
42771;BME280;28426;42.872;25.314;2023-08-24T12:09:32;96869.97;;;27.69;49.26
42771;BME280;28426;42.872;25.314;2023-08-24T12:12:03;96871.63;;;27.51;49.73
42771;BME280;28426;42.872;25.314;2023-08-24T12:14:40;96879.81;;;27.37;50.87
42771;BME280;28426;42.872;25.314;2023-08-24T12:17:11;96883.53;;;27.27;52.07
42771;BME280;28426;42.872;25.314;2023-08-24T12:19:43;96892.13;;;27.20;52.80
42771;BME280;28426;42.872;25.314;2023-08-24T12:22:14;96895.59;;;27.12;53.08
42771;BME280;28426;42.872;25.314;2023-08-24T12:24:48;96891.28;;;27.06;53.19
42771;BME280;28426;42.872;25.314;2023-08-24T12:27:19;96872.72;;;27.02;54.50
42771;BME280;28426;42.872;25.314;2023-08-24T12:29:50;96856.38;;;26.97;54.78
42771;BME280;28426;42.872;25.314;2023-08-24T12:32:21;96849.31;;;26.91;55.19
42771;BME280;28426;42.872;25.314;2023-08-24T12:34:54;96837.94;;;26.84;55.31
42771;BME280;28426;42.872;25.314;2023-08-24T12:37:25;96838.00;;;26.79;55.19
42771;BME280;28426;42.872;25.314;2023-08-24T12:39:59;96831.50;;;26.74;55.71
42771;BME280;28426;42.872;25.314;2023-08-24T12:42:30;96831.50;;;26.74;55.61
42771;BME280;28426;42.872;25.314;2023-08-24T12:45:05;96829.06;;;26.73;56.13
42771;BME280;28426;42.872;25.314;2023-08-24T12:47:36;96836.97;;;26.74;55.83
42771;BME280;28426;42.872;25.314;2023-08-24T12:50:07;96841.34;;;26.75;56.24
42771;BME280;28426;42.872;25.314;2023-08-24T12:52:38;96843.50;;;26.79;56.33
42771;BME280;28426;42.872;25.314;2023-08-24T12:55:12;96853.84;;;26.82;56.52
42771;BME280;28426;42.872;25.314;2023-08-24T12:57:43;96851.03;;;26.87;56.60
42771;BME280;28426;42.872;25.314;2023-08-24T13:00:14;96856.72;;;26.90;55.88
42771;BME280;28426;42.872;25.314;2023-08-24T13:02:45;96856.97;;;26.94;55.52
42771;BME280;28426;42.872;25.314;2023-08-24T13:05:17;96856.38;;;26.97;55.74
42771;BME280;28426;42.872;25.314;2023-08-24T13:07:48;96864.81;;;27.01;56.14
42771;BME280;28426;42.872;25.314;2023-08-24T13:10:22;96863.69;;;27.02;55.90
42771;BME280;28426;42.872;25.314;2023-08-24T13:12:53;96863.41;;;27.03;55.66
42771;BME280;28426;42.872;25.314;2023-08-24T13:15:24;96853.78;;;27.06;55.41
42771;BME280;28426;42.872;25.314;2023-08-24T13:17:55;96856.22;;;27.08;56.03